Travelers Rest, SC (29690)

5:58 PM EDT on June 22, 2017 (GMT -0400)
Monte Video | | Change Station

Elev 1096 ft 34.97 °N, 82.42 °W | Updated 10 seconds ago

Mostly Cloudy
Mostly Cloudy
78.1 °F
Feels Like 80 °F
N
0.0
Wind Variable Wind from SSE
Gusts 0.0 mph

Today
High -- | Low -- °F
--% Chance of Precip.
Yesterday
High -- | Low -- °F
Precip. -- in
Pressure 30.06 in
Visibility 10.0 miles
Clouds Clear
Heat Index 80 °F
Dew Point 71 °F
Humidity 78%
Rainfall 0.15 in
Snow Depth Not available.
6:16 AM 8:47 PM
Waning Crescent, 2% visible
METAR KGMU 222153Z 12004KT 10SM CLR 27/21 A3009 RMK AO2 SLP178 T02670211
Pressure 30.06 in
Visibility 10.0 miles
Clouds Clear
Heat Index 80 °F
Dew Point 71 °F
Humidity 78%
Rainfall 0.15 in
Snow Depth Not available.
6:16 AM 8:47 PM
Waning Crescent, 2% visible
METAR KGMU 222153Z 12004KT 10SM CLR 27/21 A3009 RMK AO2 SLP178 T02670211

Get Severe Weather Alerts

Thanks for signing up!

Be on the lookout for a verification email in your inbox.

You'll start receiving the daily forecast at 6 AM.

×

10-Day Weather Forecast

Almanac

Astronomy

Jun. 22, 2017 Rise Set
Actual Time
Civil Twilight
Nautical Twilight
Astronomical Twilight
Moon
Length of Visible Light
Length of Day
Tomorrow will be .
, % of the Moon is Illuminated

Today's Extremes

State Highs State Lows

Community

WunderPhotos

Category 6

Welcome to Category 6. This is the collective home for Weather Underground's featured writeups by Dr. Jeff Masters (right), Bob Henson (left), Chris Burt, and other regular contributors.

Nearby

Air Quality

  Air Quality AQ Index Pollutant
Not available.

Snow Depth

Station Depth Elevation

Earthquake Activity

City Distance Mag. Time & Date
Minimum magnitude displayed is 2.5.

Coastal Water Temperatures

Place Temperature

Stations

Nearby Weather Stations

Station Location Temp. Windchill Dew Point Humidity Wind Precip. Elev Updated Type
                   

Watches & Warnings

There are currently no watches in effect.